sensor_id;sensor_type;location;lat;lon;timestamp;P1;durP1;ratioP1;P2;durP2;ratioP2
18100;SDS011;9177;49.156;8.142;2022-09-09T00:00:49;1.00;;;0.65;;
18100;SDS011;9177;49.156;8.142;2022-09-09T00:03:26;1.40;;;0.40;;
18100;SDS011;9177;49.156;8.142;2022-09-09T00:05:59;0.98;;;0.60;;
18100;SDS011;9177;49.156;8.142;2022-09-09T00:08:35;0.77;;;0.50;;
18100;SDS011;9177;49.156;8.142;2022-09-09T00:11:09;0.60;;;0.47;;
18100;SDS011;9177;49.156;8.142;2022-09-09T00:13:44;0.70;;;0.50;;
18100;SDS011;9177;49.156;8.142;2022-09-09T00:16:15;0.73;;;0.40;;
18100;SDS011;9177;49.156;8.142;2022-09-09T00:18:48;0.90;;;0.55;;
18100;SDS011;9177;49.156;8.142;2022-09-09T00:21:23;2.42;;;0.50;;
18100;SDS011;9177;49.156;8.142;2022-09-09T00:24:04;0.75;;;0.50;;
18100;SDS011;9177;49.156;8.142;2022-09-09T00:26:40;1.25;;;0.57;;
18100;SDS011;9177;49.156;8.142;2022-09-09T00:29:13;0.75;;;0.40;;
18100;SDS011;9177;49.156;8.142;2022-09-09T00:31:46;0.88;;;0.47;;
18100;SDS011;9177;49.156;8.142;2022-09-09T00:34:14;0.43;;;0.40;;
18100;SDS011;9177;49.156;8.142;2022-09-09T00:36:45;1.27;;;0.47;;
18100;SDS011;9177;49.156;8.142;2022-09-09T00:39:20;0.95;;;0.70;;
18100;SDS011;9177;49.156;8.142;2022-09-09T00:41:56;0.75;;;0.43;;
18100;SDS011;9177;49.156;8.142;2022-09-09T00:44:37;0.93;;;0.50;;
18100;SDS011;9177;49.156;8.142;2022-09-09T00:47:08;2.00;;;0.65;;
18100;SDS011;9177;49.156;8.142;2022-09-09T00:49:44;0.90;;;0.40;;
18100;SDS011;9177;49.156;8.142;2022-09-09T00:52:23;1.48;;;0.50;;
18100;SDS011;9177;49.156;8.142;2022-09-09T00:55:01;1.65;;;0.60;;
18100;SDS011;9177;49.156;8.142;2022-09-09T00:57:32;0.68;;;0.47;;
18100;SDS011;9177;49.156;8.142;2022-09-09T01:02:48;2.35;;;0.47;;
18100;SDS011;9177;49.156;8.142;2022-09-09T01:05:38;0.98;;;0.55;;
18100;SDS011;9177;49.156;8.142;2022-09-09T01:08:11;1.02;;;0.50;;
18100;SDS011;9177;49.156;8.142;2022-09-09T01:10:53;1.00;;;0.57;;
18100;SDS011;9177;49.156;8.142;2022-09-09T01:13:22;1.30;;;0.40;;
18100;SDS011;9177;49.156;8.142;2022-09-09T01:15:53;0.60;;;0.30;;
18100;SDS011;9177;49.156;8.142;2022-09-09T01:18:20;0.60;;;0.50;;
18100;SDS011;9177;49.156;8.142;2022-09-09T01:20:53;0.60;;;0.45;;
18100;SDS011;9177;49.156;8.142;2022-09-09T01:23:41;0.90;;;0.57;;
18100;SDS011;9177;49.156;8.142;2022-09-09T01:26:21;0.60;;;0.40;;
18100;SDS011;9177;49.156;8.142;2022-09-09T01:28:52;2.20;;;0.52;;
18100;SDS011;9177;49.156;8.142;2022-09-09T01:31:20;1.27;;;0.50;;
18100;SDS011;9177;49.156;8.142;2022-09-09T01:33:49;1.40;;;0.63;;
18100;SDS011;9177;49.156;8.142;2022-09-09T01:36:19;0.57;;;0.40;;
18100;SDS011;9177;49.156;8.142;2022-09-09T01:38:51;0.30;;;0.30;;
18100;SDS011;9177;49.156;8.142;2022-09-09T01:41:19;0.73;;;0.60;;
18100;SDS011;9177;49.156;8.142;2022-09-09T01:43:48;0.90;;;0.40;;
18100;SDS011;9177;49.156;8.142;2022-09-09T01:46:16;0.35;;;0.32;;
18100;SDS011;9177;49.156;8.142;2022-09-09T01:48:45;2.10;;;0.70;;
18100;SDS011;9177;49.156;8.142;2022-09-09T01:51:12;1.15;;;0.50;;
18100;SDS011;9177;49.156;8.142;2022-09-09T01:53:39;0.57;;;0.40;;
18100;SDS011;9177;49.156;8.142;2022-09-09T01:56:12;0.75;;;0.30;;
18100;SDS011;9177;49.156;8.142;2022-09-09T01:58:55;0.77;;;0.50;;
18100;SDS011;9177;49.156;8.142;2022-09-09T02:01:34;0.40;;;0.30;;
18100;SDS011;9177;49.156;8.142;2022-09-09T02:04:11;0.73;;;0.40;;
18100;SDS011;9177;49.156;8.142;2022-09-09T02:06:51;1.20;;;0.50;;
18100;SDS011;9177;49.156;8.142;2022-09-09T02:09:22;2.22;;;0.70;;
18100;SDS011;9177;49.156;8.142;2022-09-09T02:11:55;1.33;;;0.63;;
18100;SDS011;9177;49.156;8.142;2022-09-09T02:14:27;2.58;;;0.70;;
18100;SDS011;9177;49.156;8.142;2022-09-09T02:17:01;2.38;;;0.50;;
18100;SDS011;9177;49.156;8.142;2022-09-09T02:19:34;0.82;;;0.52;;
18100;SDS011;9177;49.156;8.142;2022-09-09T02:22:04;1.25;;;0.50;;
18100;SDS011;9177;49.156;8.142;2022-09-09T02:24:34;1.25;;;0.60;;
18100;SDS011;9177;49.156;8.142;2022-09-09T02:27:05;1.00;;;0.60;;
18100;SDS011;9177;49.156;8.142;2022-09-09T02:29:35;1.35;;;0.50;;
18100;SDS011;9177;49.156;8.142;2022-09-09T02:32:06;0.63;;;0.52;;
18100;SDS011;9177;49.156;8.142;2022-09-09T02:34:35;0.55;;;0.38;;
18100;SDS011;9177;49.156;8.142;2022-09-09T02:37:06;1.17;;;0.50;;
18100;SDS011;9177;49.156;8.142;2022-09-09T02:39:35;1.75;;;0.65;;
18100;SDS011;9177;49.156;8.142;2022-09-09T02:42:04;1.80;;;0.60;;
18100;SDS011;9177;49.156;8.142;2022-09-09T02:44:33;1.80;;;0.60;;
18100;SDS011;9177;49.156;8.142;2022-09-09T02:47:07;1.30;;;0.50;;
18100;SDS011;9177;49.156;8.142;2022-09-09T02:49:59;1.40;;;0.60;;
18100;SDS011;9177;49.156;8.142;2022-09-09T02:52:33;1.38;;;0.60;;
18100;SDS011;9177;49.156;8.142;2022-09-09T02:55:08;0.77;;;0.30;;
18100;SDS011;9177;49.156;8.142;2022-09-09T02:57:43;0.82;;;0.40;;
18100;SDS011;9177;49.156;8.142;2022-09-09T03:00:13;1.40;;;0.60;;
18100;SDS011;9177;49.156;8.142;2022-09-09T03:02:42;1.98;;;0.60;;
18100;SDS011;9177;49.156;8.142;2022-09-09T03:05:10;0.47;;;0.40;;
18100;SDS011;9177;49.156;8.142;2022-09-09T03:07:38;1.67;;;0.50;;
18100;SDS011;9177;49.156;8.142;2022-09-09T03:10:05;3.60;;;0.82;;
18100;SDS011;9177;49.156;8.142;2022-09-09T03:12:35;0.73;;;0.40;;
18100;SDS011;9177;49.156;8.142;2022-09-09T03:15:04;2.05;;;0.77;;
18100;SDS011;9177;49.156;8.142;2022-09-09T03:17:32;0.90;;;0.40;;
18100;SDS011;9177;49.156;8.142;2022-09-09T03:19:59;0.88;;;0.52;;
18100;SDS011;9177;49.156;8.142;2022-09-09T03:22:26;0.95;;;0.50;;
18100;SDS011;9177;49.156;8.142;2022-09-09T03:24:53;0.47;;;0.30;;
18100;SDS011;9177;49.156;8.142;2022-09-09T03:27:20;1.05;;;0.45;;
18100;SDS011;9177;49.156;8.142;2022-09-09T03:29:47;1.73;;;0.60;;
18100;SDS011;9177;49.156;8.142;2022-09-09T03:32:17;1.60;;;0.60;;
18100;SDS011;9177;49.156;8.142;2022-09-09T03:34:47;0.85;;;0.40;;
18100;SDS011;9177;49.156;8.142;2022-09-09T03:37:14;1.58;;;0.57;;
18100;SDS011;9177;49.156;8.142;2022-09-09T03:39:42;1.75;;;0.40;;
18100;SDS011;9177;49.156;8.142;2022-09-09T03:42:11;0.50;;;0.32;;
18100;SDS011;9177;49.156;8.142;2022-09-09T03:44:39;0.50;;;0.40;;
18100;SDS011;9177;49.156;8.142;2022-09-09T03:47:06;0.77;;;0.40;;
18100;SDS011;9177;49.156;8.142;2022-09-09T03:49:35;0.40;;;0.40;;
18100;SDS011;9177;49.156;8.142;2022-09-09T03:52:02;0.98;;;0.40;;
18100;SDS011;9177;49.156;8.142;2022-09-09T03:54:29;2.92;;;0.60;;
18100;SDS011;9177;49.156;8.142;2022-09-09T03:56:56;1.13;;;0.40;;
18100;SDS011;9177;49.156;8.142;2022-09-09T03:59:23;0.73;;;0.40;;
18100;SDS011;9177;49.156;8.142;2022-09-09T04:01:50;1.50;;;0.60;;
18100;SDS011;9177;49.156;8.142;2022-09-09T04:04:17;0.73;;;0.40;;
18100;SDS011;9177;49.156;8.142;2022-09-09T04:06:46;1.13;;;0.40;;
18100;SDS011;9177;49.156;8.142;2022-09-09T04:09:13;1.35;;;0.57;;
18100;SDS011;9177;49.156;8.142;2022-09-09T04:11:40;0.57;;;0.43;;
18100;SDS011;9177;49.156;8.142;2022-09-09T04:14:07;2.08;;;0.50;;
18100;SDS011;9177;49.156;8.142;2022-09-09T04:16:34;0.50;;;0.35;;
18100;SDS011;9177;49.156;8.142;2022-09-09T04:19:02;0.82;;;0.43;;
18100;SDS011;9177;49.156;8.142;2022-09-09T04:21:31;1.67;;;0.60;;
18100;SDS011;9177;49.156;8.142;2022-09-09T04:23:59;1.00;;;0.60;;
18100;SDS011;9177;49.156;8.142;2022-09-09T04:26:26;2.20;;;0.55;;
18100;SDS011;9177;49.156;8.142;2022-09-09T04:28:53;1.35;;;0.50;;
18100;SDS011;9177;49.156;8.142;2022-09-09T04:31:21;0.98;;;0.30;;
18100;SDS011;9177;49.156;8.142;2022-09-09T04:33:49;0.95;;;0.40;;
18100;SDS011;9177;49.156;8.142;2022-09-09T04:36:16;1.23;;;0.32;;
18100;SDS011;9177;49.156;8.142;2022-09-09T04:38:46;1.75;;;0.50;;
18100;SDS011;9177;49.156;8.142;2022-09-09T04:41:15;0.77;;;0.40;;
18100;SDS011;9177;49.156;8.142;2022-09-09T04:43:44;1.88;;;0.55;;
18100;SDS011;9177;49.156;8.142;2022-09-09T04:46:10;0.98;;;0.35;;
18100;SDS011;9177;49.156;8.142;2022-09-09T04:48:37;1.23;;;0.45;;
18100;SDS011;9177;49.156;8.142;2022-09-09T04:51:06;1.90;;;0.50;;
18100;SDS011;9177;49.156;8.142;2022-09-09T04:53:35;1.33;;;0.30;;
18100;SDS011;9177;49.156;8.142;2022-09-09T04:56:03;0.43;;;0.30;;
18100;SDS011;9177;49.156;8.142;2022-09-09T04:58:36;1.48;;;0.43;;
18100;SDS011;9177;49.156;8.142;2022-09-09T05:01:04;1.65;;;0.55;;
18100;SDS011;9177;49.156;8.142;2022-09-09T05:03:32;1.10;;;0.70;;
18100;SDS011;9177;49.156;8.142;2022-09-09T05:06:03;1.23;;;0.50;;
18100;SDS011;9177;49.156;8.142;2022-09-09T05:08:31;1.35;;;0.45;;
18100;SDS011;9177;49.156;8.142;2022-09-09T05:10:58;0.93;;;0.40;;
18100;SDS011;9177;49.156;8.142;2022-09-09T05:13:25;1.83;;;0.40;;
18100;SDS011;9177;49.156;8.142;2022-09-09T05:15:54;0.60;;;0.40;;
18100;SDS011;9177;49.156;8.142;2022-09-09T05:18:22;1.02;;;0.45;;
18100;SDS011;9177;49.156;8.142;2022-09-09T05:20:49;0.70;;;0.43;;
18100;SDS011;9177;49.156;8.142;2022-09-09T05:23:16;0.80;;;0.40;;
18100;SDS011;9177;49.156;8.142;2022-09-09T05:25:43;0.85;;;0.47;;
18100;SDS011;9177;49.156;8.142;2022-09-09T05:28:12;0.65;;;0.35;;
18100;SDS011;9177;49.156;8.142;2022-09-09T05:30:38;1.52;;;0.38;;
18100;SDS011;9177;49.156;8.142;2022-09-09T05:33:07;0.52;;;0.30;;
18100;SDS011;9177;49.156;8.142;2022-09-09T05:35:34;0.98;;;0.47;;
18100;SDS011;9177;49.156;8.142;2022-09-09T05:38:01;1.08;;;0.45;;
18100;SDS011;9177;49.156;8.142;2022-09-09T05:40:28;1.48;;;0.60;;
18100;SDS011;9177;49.156;8.142;2022-09-09T05:42:59;0.88;;;0.60;;
18100;SDS011;9177;49.156;8.142;2022-09-09T05:45:26;0.93;;;0.52;;
18100;SDS011;9177;49.156;8.142;2022-09-09T05:47:53;1.30;;;0.55;;
18100;SDS011;9177;49.156;8.142;2022-09-09T05:50:21;0.55;;;0.40;;
18100;SDS011;9177;49.156;8.142;2022-09-09T05:52:48;0.80;;;0.45;;
18100;SDS011;9177;49.156;8.142;2022-09-09T05:55:15;0.80;;;0.40;;
18100;SDS011;9177;49.156;8.142;2022-09-09T05:57:51;0.80;;;0.60;;
18100;SDS011;9177;49.156;8.142;2022-09-09T06:00:18;0.73;;;0.32;;
18100;SDS011;9177;49.156;8.142;2022-09-09T06:02:50;1.10;;;0.40;;
18100;SDS011;9177;49.156;8.142;2022-09-09T06:05:17;1.27;;;0.60;;
18100;SDS011;9177;49.156;8.142;2022-09-09T06:07:45;0.63;;;0.50;;
18100;SDS011;9177;49.156;8.142;2022-09-09T06:10:13;1.17;;;0.52;;
18100;SDS011;9177;49.156;8.142;2022-09-09T06:12:40;0.90;;;0.40;;
18100;SDS011;9177;49.156;8.142;2022-09-09T06:15:07;1.30;;;0.40;;
18100;SDS011;9177;49.156;8.142;2022-09-09T06:17:35;1.30;;;0.55;;
18100;SDS011;9177;49.156;8.142;2022-09-09T06:20:02;0.88;;;0.40;;
18100;SDS011;9177;49.156;8.142;2022-09-09T06:22:30;1.00;;;0.40;;
18100;SDS011;9177;49.156;8.142;2022-09-09T06:24:58;0.52;;;0.32;;
18100;SDS011;9177;49.156;8.142;2022-09-09T06:27:26;0.75;;;0.60;;
18100;SDS011;9177;49.156;8.142;2022-09-09T06:29:54;0.55;;;0.30;;
18100;SDS011;9177;49.156;8.142;2022-09-09T06:32:21;0.47;;;0.38;;
18100;SDS011;9177;49.156;8.142;2022-09-09T06:34:48;1.05;;;0.40;;
18100;SDS011;9177;49.156;8.142;2022-09-09T06:37:15;0.50;;;0.40;;
18100;SDS011;9177;49.156;8.142;2022-09-09T06:39:42;0.45;;;0.40;;
18100;SDS011;9177;49.156;8.142;2022-09-09T06:42:11;0.63;;;0.32;;
18100;SDS011;9177;49.156;8.142;2022-09-09T06:44:38;0.40;;;0.40;;
18100;SDS011;9177;49.156;8.142;2022-09-09T06:47:05;0.52;;;0.35;;
18100;SDS011;9177;49.156;8.142;2022-09-09T06:49:32;0.40;;;0.32;;
18100;SDS011;9177;49.156;8.142;2022-09-09T06:52:00;0.63;;;0.40;;
18100;SDS011;9177;49.156;8.142;2022-09-09T06:54:27;0.88;;;0.50;;
18100;SDS011;9177;49.156;8.142;2022-09-09T06:56:53;0.50;;;0.50;;
18100;SDS011;9177;49.156;8.142;2022-09-09T06:59:22;1.05;;;0.50;;
18100;SDS011;9177;49.156;8.142;2022-09-09T07:01:49;1.42;;;0.43;;
18100;SDS011;9177;49.156;8.142;2022-09-09T07:04:16;0.63;;;0.35;;
18100;SDS011;9177;49.156;8.142;2022-09-09T07:06:44;1.10;;;0.50;;
18100;SDS011;9177;49.156;8.142;2022-09-09T07:09:12;0.90;;;0.50;;
18100;SDS011;9177;49.156;8.142;2022-09-09T07:11:41;1.23;;;0.40;;
18100;SDS011;9177;49.156;8.142;2022-09-09T07:14:10;0.40;;;0.40;;
18100;SDS011;9177;49.156;8.142;2022-09-09T07:16:40;0.30;;;0.20;;
18100;SDS011;9177;49.156;8.142;2022-09-09T07:19:07;0.95;;;0.43;;
18100;SDS011;9177;49.156;8.142;2022-09-09T07:21:34;0.70;;;0.30;;
18100;SDS011;9177;49.156;8.142;2022-09-09T07:24:02;0.60;;;0.38;;
18100;SDS011;9177;49.156;8.142;2022-09-09T07:26:32;1.17;;;0.28;;
18100;SDS011;9177;49.156;8.142;2022-09-09T07:28:59;0.73;;;0.40;;
18100;SDS011;9177;49.156;8.142;2022-09-09T07:31:27;0.40;;;0.40;;
18100;SDS011;9177;49.156;8.142;2022-09-09T07:33:57;0.73;;;0.40;;
18100;SDS011;9177;49.156;8.142;2022-09-09T07:36:26;1.05;;;0.50;;
18100;SDS011;9177;49.156;8.142;2022-09-09T07:38:55;0.45;;;0.30;;
18100;SDS011;9177;49.156;8.142;2022-09-09T07:41:24;1.27;;;0.52;;
18100;SDS011;9177;49.156;8.142;2022-09-09T07:43:53;0.40;;;0.30;;
18100;SDS011;9177;49.156;8.142;2022-09-09T07:46:21;0.60;;;0.43;;
18100;SDS011;9177;49.156;8.142;2022-09-09T07:48:50;0.95;;;0.47;;
18100;SDS011;9177;49.156;8.142;2022-09-09T07:51:20;0.75;;;0.43;;
18100;SDS011;9177;49.156;8.142;2022-09-09T07:53:51;1.05;;;0.40;;
18100;SDS011;9177;49.156;8.142;2022-09-09T07:56:19;1.20;;;0.47;;
18100;SDS011;9177;49.156;8.142;2022-09-09T07:58:47;0.65;;;0.47;;
18100;SDS011;9177;49.156;8.142;2022-09-09T08:01:16;0.82;;;0.40;;
18100;SDS011;9177;49.156;8.142;2022-09-09T08:03:45;0.68;;;0.40;;
18100;SDS011;9177;49.156;8.142;2022-09-09T08:06:13;0.85;;;0.50;;
18100;SDS011;9177;49.156;8.142;2022-09-09T08:08:41;1.20;;;0.43;;
18100;SDS011;9177;49.156;8.142;2022-09-09T08:11:09;0.75;;;0.50;;
18100;SDS011;9177;49.156;8.142;2022-09-09T08:13:37;0.70;;;0.30;;
18100;SDS011;9177;49.156;8.142;2022-09-09T08:16:06;1.15;;;0.57;;
18100;SDS011;9177;49.156;8.142;2022-09-09T08:18:34;0.95;;;0.43;;
18100;SDS011;9177;49.156;8.142;2022-09-09T08:21:05;1.00;;;0.43;;
18100;SDS011;9177;49.156;8.142;2022-09-09T08:23:37;0.68;;;0.50;;
18100;SDS011;9177;49.156;8.142;2022-09-09T08:26:09;1.27;;;0.52;;
18100;SDS011;9177;49.156;8.142;2022-09-09T08:28:37;0.70;;;0.40;;
18100;SDS011;9177;49.156;8.142;2022-09-09T08:31:06;0.85;;;0.40;;
18100;SDS011;9177;49.156;8.142;2022-09-09T08:33:39;0.80;;;0.60;;
18100;SDS011;9177;49.156;8.142;2022-09-09T08:36:08;1.05;;;0.40;;
18100;SDS011;9177;49.156;8.142;2022-09-09T08:38:36;0.95;;;0.50;;
18100;SDS011;9177;49.156;8.142;2022-09-09T08:41:10;1.48;;;0.55;;
18100;SDS011;9177;49.156;8.142;2022-09-09T08:43:58;1.33;;;0.70;;
18100;SDS011;9177;49.156;8.142;2022-09-09T08:46:31;1.10;;;0.40;;
18100;SDS011;9177;49.156;8.142;2022-09-09T08:49:06;1.35;;;0.57;;
18100;SDS011;9177;49.156;8.142;2022-09-09T08:51:47;0.93;;;0.50;;
18100;SDS011;9177;49.156;8.142;2022-09-09T08:54:15;0.60;;;0.40;;
18100;SDS011;9177;49.156;8.142;2022-09-09T08:56:45;0.60;;;0.35;;
18100;SDS011;9177;49.156;8.142;2022-09-09T08:59:12;0.98;;;0.40;;
18100;SDS011;9177;49.156;8.142;2022-09-09T09:01:51;1.77;;;0.40;;
18100;SDS011;9177;49.156;8.142;2022-09-09T09:04:33;0.90;;;0.60;;
18100;SDS011;9177;49.156;8.142;2022-09-09T09:07:15;1.00;;;0.47;;
18100;SDS011;9177;49.156;8.142;2022-09-09T09:09:51;0.98;;;0.65;;
18100;SDS011;9177;49.156;8.142;2022-09-09T09:12:27;0.73;;;0.40;;
18100;SDS011;9177;49.156;8.142;2022-09-09T09:14:56;1.08;;;0.45;;
18100;SDS011;9177;49.156;8.142;2022-09-09T09:17:25;0.55;;;0.40;;
18100;SDS011;9177;49.156;8.142;2022-09-09T09:19:56;1.05;;;0.70;;
18100;SDS011;9177;49.156;8.142;2022-09-09T09:22:26;1.38;;;0.70;;
18100;SDS011;9177;49.156;8.142;2022-09-09T09:25:00;1.10;;;0.55;;
18100;SDS011;9177;49.156;8.142;2022-09-09T09:27:39;1.15;;;0.57;;
18100;SDS011;9177;49.156;8.142;2022-09-09T09:30:12;0.80;;;0.50;;
18100;SDS011;9177;49.156;8.142;2022-09-09T09:32:43;0.88;;;0.35;;
18100;SDS011;9177;49.156;8.142;2022-09-09T09:35:16;3.00;;;0.60;;
18100;SDS011;9177;49.156;8.142;2022-09-09T09:37:44;1.05;;;0.60;;
18100;SDS011;9177;49.156;8.142;2022-09-09T09:40:12;1.80;;;0.65;;
18100;SDS011;9177;49.156;8.142;2022-09-09T09:42:48;1.33;;;0.60;;
18100;SDS011;9177;49.156;8.142;2022-09-09T09:45:20;0.70;;;0.60;;
18100;SDS011;9177;49.156;8.142;2022-09-09T09:47:57;1.35;;;0.60;;
18100;SDS011;9177;49.156;8.142;2022-09-09T09:50:25;1.55;;;0.65;;
18100;SDS011;9177;49.156;8.142;2022-09-09T09:52:56;1.13;;;0.70;;
18100;SDS011;9177;49.156;8.142;2022-09-09T09:55:25;1.02;;;0.50;;
18100;SDS011;9177;49.156;8.142;2022-09-09T09:58:05;1.98;;;0.60;;
18100;SDS011;9177;49.156;8.142;2022-09-09T10:00:33;2.75;;;0.68;;
18100;SDS011;9177;49.156;8.142;2022-09-09T10:03:00;0.77;;;0.40;;
18100;SDS011;9177;49.156;8.142;2022-09-09T10:05:28;0.93;;;0.50;;
18100;SDS011;9177;49.156;8.142;2022-09-09T10:08:03;2.03;;;0.68;;
18100;SDS011;9177;49.156;8.142;2022-09-09T10:10:39;1.27;;;0.68;;
18100;SDS011;9177;49.156;8.142;2022-09-09T10:13:19;1.80;;;0.60;;
18100;SDS011;9177;49.156;8.142;2022-09-09T10:15:55;1.55;;;0.70;;
18100;SDS011;9177;49.156;8.142;2022-09-09T10:18:36;2.33;;;0.65;;
18100;SDS011;9177;49.156;8.142;2022-09-09T10:21:14;1.38;;;0.50;;
18100;SDS011;9177;49.156;8.142;2022-09-09T10:23:56;2.45;;;0.50;;
18100;SDS011;9177;49.156;8.142;2022-09-09T10:26:48;2.03;;;0.70;;
18100;SDS011;9177;49.156;8.142;2022-09-09T10:29:32;1.17;;;0.65;;
18100;SDS011;9177;49.156;8.142;2022-09-09T10:32:13;0.93;;;0.60;;
18100;SDS011;9177;49.156;8.142;2022-09-09T10:34:56;1.70;;;0.43;;
18100;SDS011;9177;49.156;8.142;2022-09-09T10:37:33;1.85;;;0.60;;
18100;SDS011;9177;49.156;8.142;2022-09-09T10:40:27;1.95;;;0.60;;
18100;SDS011;9177;49.156;8.142;2022-09-09T10:43:04;1.92;;;0.80;;
18100;SDS011;9177;49.156;8.142;2022-09-09T10:45:47;1.73;;;0.68;;
18100;SDS011;9177;49.156;8.142;2022-09-09T10:48:30;1.42;;;0.57;;
18100;SDS011;9177;49.156;8.142;2022-09-09T10:51:02;1.25;;;0.50;;
18100;SDS011;9177;49.156;8.142;2022-09-09T10:53:42;1.20;;;0.63;;
18100;SDS011;9177;49.156;8.142;2022-09-09T10:56:19;0.95;;;0.55;;
18100;SDS011;9177;49.156;8.142;2022-09-09T10:58:50;1.30;;;0.55;;
18100;SDS011;9177;49.156;8.142;2022-09-09T11:01:22;1.50;;;0.60;;
18100;SDS011;9177;49.156;8.142;2022-09-09T11:03:53;1.50;;;0.60;;
18100;SDS011;9177;49.156;8.142;2022-09-09T11:06:26;1.42;;;0.60;;
18100;SDS011;9177;49.156;8.142;2022-09-09T11:08:57;1.35;;;0.70;;
18100;SDS011;9177;49.156;8.142;2022-09-09T11:11:29;2.13;;;0.75;;
18100;SDS011;9177;49.156;8.142;2022-09-09T11:14:01;1.08;;;0.60;;
18100;SDS011;9177;49.156;8.142;2022-09-09T11:16:38;1.38;;;0.60;;
18100;SDS011;9177;49.156;8.142;2022-09-09T11:19:11;1.38;;;0.60;;
18100;SDS011;9177;49.156;8.142;2022-09-09T11:21:44;0.80;;;0.52;;
18100;SDS011;9177;49.156;8.142;2022-09-09T11:24:16;1.05;;;0.60;;
18100;SDS011;9177;49.156;8.142;2022-09-09T11:26:53;1.80;;;0.80;;
18100;SDS011;9177;49.156;8.142;2022-09-09T11:29:32;1.13;;;0.65;;
18100;SDS011;9177;49.156;8.142;2022-09-09T11:32:47;1.60;;;0.50;;
18100;SDS011;9177;49.156;8.142;2022-09-09T11:35:45;1.02;;;0.57;;
18100;SDS011;9177;49.156;8.142;2022-09-09T11:38:25;1.50;;;0.70;;
18100;SDS011;9177;49.156;8.142;2022-09-09T11:40:56;1.08;;;0.47;;
18100;SDS011;9177;49.156;8.142;2022-09-09T11:43:27;3.17;;;0.80;;
18100;SDS011;9177;49.156;8.142;2022-09-09T11:45:59;1.00;;;0.50;;
18100;SDS011;9177;49.156;8.142;2022-09-09T11:48:31;2.53;;;0.90;;
18100;SDS011;9177;49.156;8.142;2022-09-09T11:51:01;1.23;;;0.63;;
18100;SDS011;9177;49.156;8.142;2022-09-09T11:53:30;2.53;;;0.93;;
18100;SDS011;9177;49.156;8.142;2022-09-09T11:56:05;1.75;;;0.63;;
18100;SDS011;9177;49.156;8.142;2022-09-09T11:58:39;1.77;;;1.00;;
18100;SDS011;9177;49.156;8.142;2022-09-09T12:04:11;2.50;;;0.85;;
18100;SDS011;9177;49.156;8.142;2022-09-09T12:06:55;1.63;;;0.70;;
18100;SDS011;9177;49.156;8.142;2022-09-09T12:09:27;2.72;;;0.75;;
18100;SDS011;9177;49.156;8.142;2022-09-09T12:12:06;1.13;;;0.82;;
18100;SDS011;9177;49.156;8.142;2022-09-09T12:14:54;2.20;;;0.93;;
18100;SDS011;9177;49.156;8.142;2022-09-09T12:17:26;1.38;;;0.50;;
18100;SDS011;9177;49.156;8.142;2022-09-09T12:20:08;2.00;;;0.98;;
18100;SDS011;9177;49.156;8.142;2022-09-09T12:22:49;1.27;;;0.63;;
18100;SDS011;9177;49.156;8.142;2022-09-09T12:25:46;1.88;;;0.80;;
18100;SDS011;9177;49.156;8.142;2022-09-09T12:28:46;1.90;;;0.70;;
18100;SDS011;9177;49.156;8.142;2022-09-09T12:31:24;2.42;;;1.00;;
18100;SDS011;9177;49.156;8.142;2022-09-09T12:34:02;1.77;;;0.82;;
18100;SDS011;9177;49.156;8.142;2022-09-09T12:36:39;2.17;;;0.80;;
18100;SDS011;9177;49.156;8.142;2022-09-09T12:39:10;1.80;;;0.65;;
18100;SDS011;9177;49.156;8.142;2022-09-09T12:41:50;2.38;;;0.75;;
18100;SDS011;9177;49.156;8.142;2022-09-09T12:44:22;1.90;;;0.85;;
18100;SDS011;9177;49.156;8.142;2022-09-09T12:46:49;1.20;;;0.70;;
18100;SDS011;9177;49.156;8.142;2022-09-09T12:49:26;1.30;;;0.57;;
18100;SDS011;9177;49.156;8.142;2022-09-09T12:52:00;2.17;;;0.77;;
18100;SDS011;9177;49.156;8.142;2022-09-09T12:54:35;2.13;;;0.60;;
18100;SDS011;9177;49.156;8.142;2022-09-09T12:57:03;2.53;;;0.70;;
18100;SDS011;9177;49.156;8.142;2022-09-09T12:59:35;3.15;;;0.82;;
18100;SDS011;9177;49.156;8.142;2022-09-09T13:02:11;1.38;;;0.70;;
18100;SDS011;9177;49.156;8.142;2022-09-09T13:04:45;2.42;;;0.73;;
18100;SDS011;9177;49.156;8.142;2022-09-09T13:07:14;3.00;;;0.73;;
18100;SDS011;9177;49.156;8.142;2022-09-09T13:09:41;2.33;;;0.90;;
18100;SDS011;9177;49.156;8.142;2022-09-09T13:12:11;1.05;;;0.60;;
18100;SDS011;9177;49.156;8.142;2022-09-09T13:14:42;3.22;;;0.90;;
18100;SDS011;9177;49.156;8.142;2022-09-09T13:17:15;1.30;;;0.68;;
18100;SDS011;9177;49.156;8.142;2022-09-09T13:19:46;3.10;;;0.80;;
18100;SDS011;9177;49.156;8.142;2022-09-09T13:22:35;3.58;;;0.60;;
18100;SDS011;9177;49.156;8.142;2022-09-09T13:25:05;0.73;;;0.50;;
18100;SDS011;9177;49.156;8.142;2022-09-09T13:27:51;1.20;;;0.60;;
18100;SDS011;9177;49.156;8.142;2022-09-09T13:30:20;1.25;;;0.73;;
18100;SDS011;9177;49.156;8.142;2022-09-09T13:32:59;1.85;;;0.65;;
18100;SDS011;9177;49.156;8.142;2022-09-09T13:35:45;1.95;;;0.70;;
18100;SDS011;9177;49.156;8.142;2022-09-09T13:38:15;1.88;;;0.65;;
18100;SDS011;9177;49.156;8.142;2022-09-09T13:40:51;1.40;;;0.77;;
18100;SDS011;9177;49.156;8.142;2022-09-09T13:43:21;1.23;;;0.60;;
18100;SDS011;9177;49.156;8.142;2022-09-09T13:45:52;2.05;;;0.75;;
18100;SDS011;9177;49.156;8.142;2022-09-09T13:48:23;2.38;;;0.90;;
18100;SDS011;9177;49.156;8.142;2022-09-09T13:50:53;3.75;;;0.82;;
18100;SDS011;9177;49.156;8.142;2022-09-09T13:53:23;3.42;;;0.90;;
18100;SDS011;9177;49.156;8.142;2022-09-09T13:55:49;6.40;;;0.88;;
18100;SDS011;9177;49.156;8.142;2022-09-09T13:58:17;4.03;;;0.90;;
18100;SDS011;9177;49.156;8.142;2022-09-09T14:00:45;5.20;;;1.08;;
18100;SDS011;9177;49.156;8.142;2022-09-09T14:03:12;2.95;;;0.98;;
18100;SDS011;9177;49.156;8.142;2022-09-09T14:05:39;3.63;;;0.98;;
18100;SDS011;9177;49.156;8.142;2022-09-09T14:08:07;2.83;;;0.85;;
18100;SDS011;9177;49.156;8.142;2022-09-09T14:10:42;3.22;;;1.05;;
18100;SDS011;9177;49.156;8.142;2022-09-09T14:13:09;6.53;;;1.38;;
18100;SDS011;9177;49.156;8.142;2022-09-09T14:15:37;3.40;;;0.80;;
18100;SDS011;9177;49.156;8.142;2022-09-09T14:18:04;5.50;;;0.90;;
18100;SDS011;9177;49.156;8.142;2022-09-09T14:20:31;5.18;;;1.10;;
18100;SDS011;9177;49.156;8.142;2022-09-09T14:22:58;5.30;;;1.00;;
18100;SDS011;9177;49.156;8.142;2022-09-09T14:25:24;4.72;;;1.30;;
18100;SDS011;9177;49.156;8.142;2022-09-09T14:27:53;4.60;;;1.10;;
18100;SDS011;9177;49.156;8.142;2022-09-09T14:30:21;6.97;;;1.10;;
18100;SDS011;9177;49.156;8.142;2022-09-09T14:32:48;3.83;;;1.00;;
18100;SDS011;9177;49.156;8.142;2022-09-09T14:35:15;5.45;;;1.20;;
18100;SDS011;9177;49.156;8.142;2022-09-09T14:37:43;3.58;;;0.98;;
18100;SDS011;9177;49.156;8.142;2022-09-09T14:40:11;4.93;;;1.10;;
18100;SDS011;9177;49.156;8.142;2022-09-09T14:42:39;5.10;;;1.30;;
18100;SDS011;9177;49.156;8.142;2022-09-09T14:45:08;3.00;;;1.00;;
18100;SDS011;9177;49.156;8.142;2022-09-09T14:47:36;2.92;;;1.27;;
18100;SDS011;9177;49.156;8.142;2022-09-09T14:50:03;2.83;;;1.10;;
18100;SDS011;9177;49.156;8.142;2022-09-09T14:52:31;4.38;;;1.20;;
18100;SDS011;9177;49.156;8.142;2022-09-09T14:54:58;2.42;;;0.82;;
18100;SDS011;9177;49.156;8.142;2022-09-09T14:57:25;5.03;;;1.10;;
18100;SDS011;9177;49.156;8.142;2022-09-09T14:59:52;3.25;;;0.90;;
18100;SDS011;9177;49.156;8.142;2022-09-09T15:02:20;3.78;;;1.17;;
18100;SDS011;9177;49.156;8.142;2022-09-09T15:04:48;4.65;;;0.95;;
18100;SDS011;9177;49.156;8.142;2022-09-09T15:07:15;2.92;;;1.20;;
18100;SDS011;9177;49.156;8.142;2022-09-09T15:09:44;2.90;;;1.00;;
18100;SDS011;9177;49.156;8.142;2022-09-09T15:12:12;6.07;;;1.20;;
18100;SDS011;9177;49.156;8.142;2022-09-09T15:14:40;4.05;;;1.02;;
18100;SDS011;9177;49.156;8.142;2022-09-09T15:17:07;1.90;;;0.90;;
18100;SDS011;9177;49.156;8.142;2022-09-09T15:19:36;2.50;;;1.10;;
18100;SDS011;9177;49.156;8.142;2022-09-09T15:22:03;3.72;;;1.10;;
18100;SDS011;9177;49.156;8.142;2022-09-09T15:24:32;6.40;;;1.48;;
18100;SDS011;9177;49.156;8.142;2022-09-09T15:27:00;3.53;;;1.33;;
18100;SDS011;9177;49.156;8.142;2022-09-09T15:29:27;5.30;;;1.05;;
18100;SDS011;9177;49.156;8.142;2022-09-09T15:31:55;3.78;;;1.20;;